sensor_id;sensor_type;location;lat;lon;timestamp;P1;durP1;ratioP1;P2;durP2;ratioP2
74168;SDS011;62523;53.336;83.690;2022-09-20T00:09:41;26.65;;;17.33;;
74168;SDS011;62523;53.336;83.690;2022-09-20T00:19:43;44.50;;;24.98;;
74168;SDS011;62523;53.336;83.690;2022-09-20T00:29:46;115.72;;;58.05;;
74168;SDS011;62523;53.336;83.690;2022-09-20T00:40:08;64.13;;;34.55;;
74168;SDS011;62523;53.336;83.690;2022-09-20T00:45:26;49.60;;;28.63;;
74168;SDS011;62523;53.336;83.690;2022-09-20T00:50:39;88.22;;;28.70;;
74168;SDS011;62523;53.336;83.690;2022-09-20T00:55:45;75.70;;;22.02;;
74168;SDS011;62523;53.336;83.690;2022-09-20T01:00:49;41.25;;;19.45;;
74168;SDS011;62523;53.336;83.690;2022-09-20T01:05:53;51.78;;;18.77;;
74168;SDS011;62523;53.336;83.690;2022-09-20T01:10:55;44.20;;;21.80;;
74168;SDS011;62523;53.336;83.690;2022-09-20T01:15:56;33.08;;;19.83;;
74168;SDS011;62523;53.336;83.690;2022-09-20T01:21:00;53.38;;;22.75;;
74168;SDS011;62523;53.336;83.690;2022-09-20T01:31:23;41.40;;;21.30;;
74168;SDS011;62523;53.336;83.690;2022-09-20T01:41:54;53.97;;;18.05;;
74168;SDS011;62523;53.336;83.690;2022-09-20T01:47:08;27.20;;;16.35;;
74168;SDS011;62523;53.336;83.690;2022-09-20T01:57:56;44.92;;;19.38;;
74168;SDS011;62523;53.336;83.690;2022-09-20T02:03:26;35.28;;;18.33;;
74168;SDS011;62523;53.336;83.690;2022-09-20T02:08:41;43.30;;;18.52;;
74168;SDS011;62523;53.336;83.690;2022-09-20T02:52:06;53.92;;;20.15;;
74168;SDS011;62523;53.336;83.690;2022-09-20T02:57:47;78.30;;;39.17;;
74168;SDS011;62523;53.336;83.690;2022-09-20T03:03:01;42.75;;;17.73;;
74168;SDS011;62523;53.336;83.690;2022-09-20T03:19:02;30.75;;;15.13;;
74168;SDS011;62523;53.336;83.690;2022-09-20T03:41:04;80.30;;;18.17;;
74168;SDS011;62523;53.336;83.690;2022-09-20T03:46:27;52.60;;;19.00;;
74168;SDS011;62523;53.336;83.690;2022-09-20T03:57:02;51.55;;;19.67;;
74168;SDS011;62523;53.336;83.690;2022-09-20T04:07:36;45.67;;;16.93;;
74168;SDS011;62523;53.336;83.690;2022-09-20T04:13:20;41.65;;;16.98;;
74168;SDS011;62523;53.336;83.690;2022-09-20T04:34:21;40.17;;;15.25;;
74168;SDS011;62523;53.336;83.690;2022-09-20T04:39:56;41.72;;;15.23;;
74168;SDS011;62523;53.336;83.690;2022-09-20T05:12:34;12.32;;;4.78;;
74168;SDS011;62523;53.336;83.690;2022-09-20T05:23:17;11.65;;;5.38;;
74168;SDS011;62523;53.336;83.690;2022-09-20T05:34:00;14.02;;;6.15;;
74168;SDS011;62523;53.336;83.690;2022-09-20T05:55:19;21.67;;;8.18;;
74168;SDS011;62523;53.336;83.690;2022-09-20T06:00:44;24.77;;;7.97;;
74168;SDS011;62523;53.336;83.690;2022-09-20T06:17:52;22.48;;;7.50;;
74168;SDS011;62523;53.336;83.690;2022-09-20T06:22:45;17.77;;;5.22;;
74168;SDS011;62523;53.336;83.690;2022-09-20T06:27:51;34.78;;;5.18;;
74168;SDS011;62523;53.336;83.690;2022-09-20T06:33:05;11.45;;;4.97;;
74168;SDS011;62523;53.336;83.690;2022-09-20T06:43:44;12.07;;;4.22;;
74168;SDS011;62523;53.336;83.690;2022-09-20T06:48:50;14.65;;;4.93;;
74168;SDS011;62523;53.336;83.690;2022-09-20T06:53:55;19.67;;;6.93;;
74168;SDS011;62523;53.336;83.690;2022-09-20T06:58:57;16.73;;;4.50;;
74168;SDS011;62523;53.336;83.690;2022-09-20T07:03:58;8.85;;;3.42;;
74168;SDS011;62523;53.336;83.690;2022-09-20T07:09:01;35.75;;;5.85;;
74168;SDS011;62523;53.336;83.690;2022-09-20T07:14:02;24.13;;;6.22;;
74168;SDS011;62523;53.336;83.690;2022-09-20T07:19:04;19.00;;;4.05;;
74168;SDS011;62523;53.336;83.690;2022-09-20T07:24:06;12.48;;;3.75;;
74168;SDS011;62523;53.336;83.690;2022-09-20T07:29:07;11.88;;;3.63;;
74168;SDS011;62523;53.336;83.690;2022-09-20T07:34:09;8.02;;;3.40;;
74168;SDS011;62523;53.336;83.690;2022-09-20T07:39:10;12.68;;;3.70;;
74168;SDS011;62523;53.336;83.690;2022-09-20T07:44:14;12.13;;;4.05;;
74168;SDS011;62523;53.336;83.690;2022-09-20T07:49:24;27.17;;;5.53;;
74168;SDS011;62523;53.336;83.690;2022-09-20T07:54:28;8.68;;;4.90;;
74168;SDS011;62523;53.336;83.690;2022-09-20T07:59:29;16.35;;;6.00;;
74168;SDS011;62523;53.336;83.690;2022-09-20T08:04:31;6.07;;;3.90;;
74168;SDS011;62523;53.336;83.690;2022-09-20T08:09:32;16.38;;;4.65;;
74168;SDS011;62523;53.336;83.690;2022-09-20T08:14:34;17.85;;;6.78;;
74168;SDS011;62523;53.336;83.690;2022-09-20T08:19:35;13.23;;;5.05;;
74168;SDS011;62523;53.336;83.690;2022-09-20T08:24:39;16.08;;;5.40;;
74168;SDS011;62523;53.336;83.690;2022-09-20T08:29:42;13.88;;;5.53;;
74168;SDS011;62523;53.336;83.690;2022-09-20T08:34:43;22.90;;;6.47;;
74168;SDS011;62523;53.336;83.690;2022-09-20T08:39:44;11.77;;;5.55;;
74168;SDS011;62523;53.336;83.690;2022-09-20T08:44:47;14.38;;;5.30;;
74168;SDS011;62523;53.336;83.690;2022-09-20T08:49:52;15.77;;;6.05;;
74168;SDS011;62523;53.336;83.690;2022-09-20T08:54:55;19.88;;;6.03;;
74168;SDS011;62523;53.336;83.690;2022-09-20T08:59:58;9.02;;;4.95;;
74168;SDS011;62523;53.336;83.690;2022-09-20T09:05:01;12.02;;;6.25;;
74168;SDS011;62523;53.336;83.690;2022-09-20T09:10:05;17.83;;;5.75;;
74168;SDS011;62523;53.336;83.690;2022-09-20T09:15:19;9.27;;;5.38;;
74168;SDS011;62523;53.336;83.690;2022-09-20T09:20:27;14.45;;;5.18;;
74168;SDS011;62523;53.336;83.690;2022-09-20T09:25:29;7.47;;;5.68;;
74168;SDS011;62523;53.336;83.690;2022-09-20T09:30:38;9.60;;;5.53;;
74168;SDS011;62523;53.336;83.690;2022-09-20T09:35:41;7.65;;;5.80;;
74168;SDS011;62523;53.336;83.690;2022-09-20T09:40:50;27.38;;;4.88;;
74168;SDS011;62523;53.336;83.690;2022-09-20T09:51:18;8.27;;;4.70;;
74168;SDS011;62523;53.336;83.690;2022-09-20T10:06:42;10.95;;;4.80;;
74168;SDS011;62523;53.336;83.690;2022-09-20T10:33:34;17.20;;;6.47;;
74168;SDS011;62523;53.336;83.690;2022-09-20T10:38:52;20.67;;;8.43;;
74168;SDS011;62523;53.336;83.690;2022-09-20T11:00:22;20.42;;;8.38;;
74168;SDS011;62523;53.336;83.690;2022-09-20T11:11:25;13.95;;;7.47;;
74168;SDS011;62523;53.336;83.690;2022-09-20T11:21:47;17.63;;;7.43;;
74168;SDS011;62523;53.336;83.690;2022-09-20T11:26:50;16.55;;;7.57;;
74168;SDS011;62523;53.336;83.690;2022-09-20T11:31:57;10.15;;;7.20;;
74168;SDS011;62523;53.336;83.690;2022-09-20T11:37:15;14.20;;;7.97;;
74168;SDS011;62523;53.336;83.690;2022-09-20T11:42:19;27.23;;;8.73;;
74168;SDS011;62523;53.336;83.690;2022-09-20T11:47:34;18.40;;;8.48;;
74168;SDS011;62523;53.336;83.690;2022-09-20T11:58:11;20.90;;;8.20;;
74168;SDS011;62523;53.336;83.690;2022-09-20T12:03:21;11.95;;;6.35;;
74168;SDS011;62523;53.336;83.690;2022-09-20T12:08:38;11.43;;;5.82;;
74168;SDS011;62523;53.336;83.690;2022-09-20T12:13:51;18.13;;;6.45;;
74168;SDS011;62523;53.336;83.690;2022-09-20T12:19:04;14.95;;;6.90;;
74168;SDS011;62523;53.336;83.690;2022-09-20T12:24:14;20.83;;;6.22;;
74168;SDS011;62523;53.336;83.690;2022-09-20T12:34:27;31.13;;;8.48;;
74168;SDS011;62523;53.336;83.690;2022-09-20T12:39:34;20.42;;;8.65;;
74168;SDS011;62523;53.336;83.690;2022-09-20T12:44:53;12.25;;;8.20;;
74168;SDS011;62523;53.336;83.690;2022-09-20T12:49:58;17.98;;;6.38;;
74168;SDS011;62523;53.336;83.690;2022-09-20T12:55:38;19.60;;;6.55;;
74168;SDS011;62523;53.336;83.690;2022-09-20T13:01:25;21.90;;;6.82;;
74168;SDS011;62523;53.336;83.690;2022-09-20T13:11:18;18.65;;;8.05;;
74168;SDS011;62523;53.336;83.690;2022-09-20T13:21:39;18.98;;;8.07;;
74168;SDS011;62523;53.336;83.690;2022-09-20T13:27:07;31.35;;;11.18;;
74168;SDS011;62523;53.336;83.690;2022-09-20T13:32:26;22.95;;;11.43;;
74168;SDS011;62523;53.336;83.690;2022-09-20T13:37:28;21.55;;;12.50;;
74168;SDS011;62523;53.336;83.690;2022-09-20T13:42:30;22.48;;;13.60;;
74168;SDS011;62523;53.336;83.690;2022-09-20T13:47:39;29.02;;;13.93;;
74168;SDS011;62523;53.336;83.690;2022-09-20T13:52:44;30.10;;;11.80;;
74168;SDS011;62523;53.336;83.690;2022-09-20T13:57:47;30.60;;;13.50;;
74168;SDS011;62523;53.336;83.690;2022-09-20T14:02:48;25.13;;;13.75;;
74168;SDS011;62523;53.336;83.690;2022-09-20T14:07:51;30.05;;;11.88;;
74168;SDS011;62523;53.336;83.690;2022-09-20T14:12:53;25.27;;;10.15;;
74168;SDS011;62523;53.336;83.690;2022-09-20T14:17:55;20.15;;;10.93;;
74168;SDS011;62523;53.336;83.690;2022-09-20T14:22:57;22.75;;;11.00;;
74168;SDS011;62523;53.336;83.690;2022-09-20T14:28:05;27.40;;;9.32;;
74168;SDS011;62523;53.336;83.690;2022-09-20T14:33:19;15.90;;;8.95;;
74168;SDS011;62523;53.336;83.690;2022-09-20T14:38:21;18.45;;;10.18;;
74168;SDS011;62523;53.336;83.690;2022-09-20T14:43:27;24.65;;;10.25;;
74168;SDS011;62523;53.336;83.690;2022-09-20T14:48:37;12.65;;;7.22;;
74168;SDS011;62523;53.336;83.690;2022-09-20T14:53:44;34.17;;;9.82;;
74168;SDS011;62523;53.336;83.690;2022-09-20T14:59:04;12.82;;;7.30;;
74168;SDS011;62523;53.336;83.690;2022-09-20T15:04:27;11.95;;;7.32;;
74168;SDS011;62523;53.336;83.690;2022-09-20T15:09:28;22.23;;;7.88;;
74168;SDS011;62523;53.336;83.690;2022-09-20T15:14:29;10.05;;;6.55;;
74168;SDS011;62523;53.336;83.690;2022-09-20T15:19:31;7.15;;;5.50;;
74168;SDS011;62523;53.336;83.690;2022-09-20T15:24:33;25.55;;;6.22;;
74168;SDS011;62523;53.336;83.690;2022-09-20T15:29:35;12.50;;;6.10;;
74168;SDS011;62523;53.336;83.690;2022-09-20T15:34:36;15.15;;;7.18;;
74168;SDS011;62523;53.336;83.690;2022-09-20T15:39:38;15.35;;;6.85;;
74168;SDS011;62523;53.336;83.690;2022-09-20T15:44:39;11.02;;;5.28;;
74168;SDS011;62523;53.336;83.690;2022-09-20T15:49:40;22.40;;;5.88;;
74168;SDS011;62523;53.336;83.690;2022-09-20T15:54:41;12.27;;;5.60;;
74168;SDS011;62523;53.336;83.690;2022-09-20T15:59:43;14.32;;;5.50;;
74168;SDS011;62523;53.336;83.690;2022-09-20T16:04:45;12.20;;;5.70;;
74168;SDS011;62523;53.336;83.690;2022-09-20T16:09:46;12.30;;;6.38;;
74168;SDS011;62523;53.336;83.690;2022-09-20T16:14:47;7.68;;;4.47;;
74168;SDS011;62523;53.336;83.690;2022-09-20T16:19:50;9.63;;;5.10;;
74168;SDS011;62523;53.336;83.690;2022-09-20T16:24:52;10.73;;;4.22;;
74168;SDS011;62523;53.336;83.690;2022-09-20T16:29:53;10.02;;;4.28;;
74168;SDS011;62523;53.336;83.690;2022-09-20T16:34:55;9.82;;;5.40;;
74168;SDS011;62523;53.336;83.690;2022-09-20T16:39:58;8.05;;;4.80;;
74168;SDS011;62523;53.336;83.690;2022-09-20T16:44:59;9.15;;;4.97;;
74168;SDS011;62523;53.336;83.690;2022-09-20T16:50:01;15.45;;;4.28;;
74168;SDS011;62523;53.336;83.690;2022-09-20T16:55:02;11.45;;;4.90;;
74168;SDS011;62523;53.336;83.690;2022-09-20T17:00:04;7.63;;;4.90;;
74168;SDS011;62523;53.336;83.690;2022-09-20T17:05:06;7.43;;;4.55;;
74168;SDS011;62523;53.336;83.690;2022-09-20T17:10:08;12.43;;;4.82;;
74168;SDS011;62523;53.336;83.690;2022-09-20T17:15:10;13.65;;;3.90;;
74168;SDS011;62523;53.336;83.690;2022-09-20T17:20:13;10.82;;;4.45;;
74168;SDS011;62523;53.336;83.690;2022-09-20T17:25:14;20.95;;;4.80;;
74168;SDS011;62523;53.336;83.690;2022-09-20T17:30:15;17.65;;;6.10;;
74168;SDS011;62523;53.336;83.690;2022-09-20T17:35:17;6.30;;;4.65;;
74168;SDS011;62523;53.336;83.690;2022-09-20T17:40:18;6.07;;;4.35;;
74168;SDS011;62523;53.336;83.690;2022-09-20T17:45:19;11.77;;;5.40;;
74168;SDS011;62523;53.336;83.690;2022-09-20T17:50:20;6.55;;;3.78;;
74168;SDS011;62523;53.336;83.690;2022-09-20T17:55:21;16.55;;;5.85;;
74168;SDS011;62523;53.336;83.690;2022-09-20T18:00:23;10.90;;;5.15;;
74168;SDS011;62523;53.336;83.690;2022-09-20T18:05:25;9.30;;;4.18;;
74168;SDS011;62523;53.336;83.690;2022-09-20T18:10:27;13.18;;;4.40;;
74168;SDS011;62523;53.336;83.690;2022-09-20T18:15:28;10.48;;;5.75;;
74168;SDS011;62523;53.336;83.690;2022-09-20T18:20:29;14.85;;;6.72;;
74168;SDS011;62523;53.336;83.690;2022-09-20T18:25:32;15.90;;;6.60;;
74168;SDS011;62523;53.336;83.690;2022-09-20T18:30:58;10.73;;;5.70;;
74168;SDS011;62523;53.336;83.690;2022-09-20T18:36:01;15.98;;;5.82;;
74168;SDS011;62523;53.336;83.690;2022-09-20T18:41:04;17.98;;;7.05;;
74168;SDS011;62523;53.336;83.690;2022-09-20T18:46:05;21.85;;;5.43;;
74168;SDS011;62523;53.336;83.690;2022-09-20T18:51:07;11.80;;;5.80;;
74168;SDS011;62523;53.336;83.690;2022-09-20T18:56:19;20.45;;;6.93;;
74168;SDS011;62523;53.336;83.690;2022-09-20T19:12:35;20.63;;;7.50;;
74168;SDS011;62523;53.336;83.690;2022-09-20T19:23:09;23.05;;;13.30;;
74168;SDS011;62523;53.336;83.690;2022-09-20T19:33:32;13.07;;;8.90;;
74168;SDS011;62523;53.336;83.690;2022-09-20T19:38:57;21.75;;;8.93;;
74168;SDS011;62523;53.336;83.690;2022-09-20T19:49:29;27.40;;;9.80;;
74168;SDS011;62523;53.336;83.690;2022-09-20T19:54:40;18.15;;;8.95;;
74168;SDS011;62523;53.336;83.690;2022-09-20T19:59:45;11.00;;;6.28;;
74168;SDS011;62523;53.336;83.690;2022-09-20T20:04:47;28.75;;;10.55;;
74168;SDS011;62523;53.336;83.690;2022-09-20T20:15:43;36.70;;;11.20;;
74168;SDS011;62523;53.336;83.690;2022-09-20T20:20:51;38.60;;;12.63;;
74168;SDS011;62523;53.336;83.690;2022-09-20T20:30:59;38.10;;;14.02;;
74168;SDS011;62523;53.336;83.690;2022-09-20T20:36:04;43.40;;;11.80;;
74168;SDS011;62523;53.336;83.690;2022-09-20T20:41:09;30.58;;;14.88;;
74168;SDS011;62523;53.336;83.690;2022-09-20T20:46:13;41.20;;;12.52;;
74168;SDS011;62523;53.336;83.690;2022-09-20T20:51:17;23.90;;;12.82;;
74168;SDS011;62523;53.336;83.690;2022-09-20T20:56:24;25.65;;;12.23;;
74168;SDS011;62523;53.336;83.690;2022-09-20T21:06:33;30.17;;;13.95;;
74168;SDS011;62523;53.336;83.690;2022-09-20T21:11:37;26.92;;;11.95;;
74168;SDS011;62523;53.336;83.690;2022-09-20T21:16:43;14.88;;;6.22;;
74168;SDS011;62523;53.336;83.690;2022-09-20T21:21:45;20.00;;;9.70;;
74168;SDS011;62523;53.336;83.690;2022-09-20T21:26:47;7.70;;;5.95;;
74168;SDS011;62523;53.336;83.690;2022-09-20T21:36:49;17.17;;;7.30;;
74168;SDS011;62523;53.336;83.690;2022-09-20T21:46:51;17.23;;;6.18;;
74168;SDS011;62523;53.336;83.690;2022-09-20T21:56:54;12.85;;;7.10;;
74168;SDS011;62523;53.336;83.690;2022-09-20T22:01:58;16.63;;;8.82;;
74168;SDS011;62523;53.336;83.690;2022-09-20T22:12:03;12.90;;;8.50;;
74168;SDS011;62523;53.336;83.690;2022-09-20T22:17:04;27.60;;;9.48;;
74168;SDS011;62523;53.336;83.690;2022-09-20T22:27:07;21.10;;;9.23;;
74168;SDS011;62523;53.336;83.690;2022-09-20T22:32:08;29.35;;;10.13;;
74168;SDS011;62523;53.336;83.690;2022-09-20T22:37:09;16.52;;;9.70;;
74168;SDS011;62523;53.336;83.690;2022-09-20T22:47:11;33.25;;;10.23;;
74168;SDS011;62523;53.336;83.690;2022-09-20T22:52:12;23.35;;;10.20;;
74168;SDS011;62523;53.336;83.690;2022-09-20T22:57:14;35.35;;;12.90;;
74168;SDS011;62523;53.336;83.690;2022-09-20T23:07:16;30.98;;;14.45;;
74168;SDS011;62523;53.336;83.690;2022-09-20T23:12:17;36.25;;;15.90;;
74168;SDS011;62523;53.336;83.690;2022-09-20T23:22:19;30.75;;;15.75;;
74168;SDS011;62523;53.336;83.690;2022-09-20T23:32:21;34.60;;;14.63;;
74168;SDS011;62523;53.336;83.690;2022-09-20T23:42:24;38.78;;;13.32;;
74168;SDS011;62523;53.336;83.690;2022-09-20T23:52:26;33.75;;;12.68;;
